Payne, Ohio
Current Conditions -  °F | °C
As of 7:15 PM on Wednesday 26 Nov 2014 (Local Time) from KGWB Reporting Station
Overcast Overcast  
Wind Chill: -1°   Ceiling: 2300
Heat Index: -1°   Visibility: 10mi
Dew Point: -5°   Wind: 0mph
Humidity: 75%   Direction: NA
Pressure: 30.08"   Gusts: NA
Location:  41.08°N, 84.73°W
Report Text: KGWB 270015Z AUTO 00000KT 10SM OVC023 M01/M05 A3008 RMK AO2
Loading
Personal Weather Stations






























Interactive Weather Map New forecast layout! Learn more

10-Day Weather Forecast

Advertisements
Track Severe Weather on mobile